Accueil
METAR-TAF:

METAR-TAF

Aéroports :

Aéroport Sultan Azlan Shah

Ipoh, Malaisie

latitude: 04-34-09N, longitude: 101-05-35E, altitude: 40 m

Observation

Le bulletin a été fait il y a 51 minutes, à 22:00 UTC
Vent 5 kt de nord-est, variant entre nord et est/nord-est
Température 27°C
Humidité 89%
Pression 1009 hPa
Visibilité: 8000 m
Quelques nuages à une hauteur de 3000 ft

METAR: WMKI 252200Z 04005KT 010V070 8000 FEW030 27/25 Q1009

Heure: 06:51 (22:51 UTC)

Prévision

Le bulletin a été fait il y a 5 heures et 51 minutes, à 17:00 UTC
Prévision valable du 25 à 18 UTC au 26 à 18 UTC
Vent 2 kt de direction variable
Visibilité 10 km ou plus
Quelques nuages à une hauteur de 3000 ft
Evoluant progressivement
du 26 à 00 UTC au 26 à 02 UTC
Vent 5 kt de direction variable
Quelques nuages à une hauteur de 1900 ft

TAF: WMKI 251700Z 2518/2618 VRB02KT 9999 FEW030 BECMG 2600/2602 VRB05KT FEW019

Observations et prévisions météorologiques de plus de 4000 aéroports (messages METAR et TAF).

Les stations disponibles sont représentées par des disques jaunes et rouges sur la carte.

Passer la souris dessus pour voir le nom de la station.

Cliquer dessus pour voir les observations et prévisions météorologiques.

Pour changer de carte: cliquez sur les boutons verts avec une croix noire pour zoomer, sur le bouton vert avec un tiret pour effectuer un zoom arrière, ou sur les flèches vertes pour les cartes adjacentes.


METAR-TAF: